Terminal Aerodrome Forecast
Issued by NWS Buffalo, NY

Home | Current Version | Previous Version | Text Only | Print | Product List | Glossary On
Versions: 1 2 3 4 5 6 7 8 9 10 11 12 13 14 15 16 17 18 19 20 21 22 23 24 25 26 27 28 29 30 31 32 33 34 35
000
FTUS41 KBUF 022330
TAFROC
TAF
KROC 022330Z 0300/0324 08006KT P6SM SCT250
     FM030200 VRB04KT P6SM SKC
     FM031800 06008KT P6SM SKC=

USA.gov is the U.S. government's official web portal to all federal, state and local government web resources and services.